Time;durP1;ratioP1;P1;durP2;ratioP2;P2;SDS_P1;SDS_P2;PMS_P1;PMS_P2;Temp;Humidity;BMP_temperature;BMP_pressure;BME280_temperature;BME280_humidity;BME280_pressure;Samples;Min_cycle;Max_cycle;Signal;HPM_P1;HPM_P2
2023/10/03 00:02:05;;;;;;;1999.90;999.90;;;11.80;99.90;;;;;;4953201;28;20039;-79
2023/10/03 00:04:31;;;;;;;1999.90;999.90;;;11.80;99.90;;;;;;4951541;28;20221;-79
2023/10/03 00:06:57;;;;;;;1999.90;999.90;;;11.80;99.90;;;;;;4952792;28;20027;-79
2023/10/03 00:09:23;;;;;;;1999.90;999.90;;;11.80;99.90;;;;;;4953037;28;20036;-79
2023/10/03 00:11:49;;;;;;;1999.90;999.90;;;11.80;99.90;;;;;;4951535;28;20505;-79
2023/10/03 00:14:15;;;;;;;1999.90;999.90;;;11.70;99.90;;;;;;4952719;28;20060;-79
2023/10/03 00:16:41;;;;;;;1999.90;999.90;;;11.70;99.90;;;;;;4952757;28;20182;-80
2023/10/03 00:19:07;;;;;;;1999.90;999.90;;;11.70;99.90;;;;;;4952934;28;20043;-79
2023/10/03 00:21:33;;;;;;;1999.90;999.90;;;11.60;99.90;;;;;;4952984;28;20094;-79
2023/10/03 00:24:01;;;;;;;1999.90;999.90;;;11.60;99.90;;;;;;4950643;28;20465;-79
2023/10/03 00:26:28;;;;;;;1999.90;999.90;;;11.50;99.90;;;;;;4950985;28;20063;-79
2023/10/03 00:28:56;;;;;;;1999.90;999.90;;;11.50;99.90;;;;;;4952675;28;20119;-79
2023/10/03 00:31:22;;;;;;;1999.90;999.90;;;11.60;99.90;;;;;;4951290;28;20043;-79
2023/10/03 00:33:48;;;;;;;1999.90;999.90;;;11.60;99.90;;;;;;4952600;28;20040;-79
2023/10/03 00:36:25;;;;;;;1999.90;999.90;;;11.60;99.90;;;;;;4953689;28;20547;-79
2023/10/03 00:38:51;;;;;;;1999.90;999.90;;;11.60;99.90;;;;;;4955830;28;20127;-79
2023/10/03 00:41:19;;;;;;;1999.90;999.90;;;11.60;99.90;;;;;;4955421;28;20042;-79
2023/10/03 00:44:01;;;;;;;1999.90;999.90;;;11.50;99.90;;;;;;4952880;28;20563;-79
2023/10/03 00:46:29;;;;;;;1999.90;999.90;;;11.50;99.90;;;;;;4953934;28;20047;-79
2023/10/03 00:48:55;;;;;;;1999.90;999.90;;;11.50;99.90;;;;;;4954118;28;20460;-79
2023/10/03 00:51:22;;;;;;;1999.90;999.90;;;11.50;99.90;;;;;;4955526;28;20024;-80
2023/10/03 00:53:51;;;;;;;1999.90;999.90;;;11.60;99.90;;;;;;4954977;28;20122;-78
2023/10/03 00:56:18;;;;;;;1999.90;999.90;;;11.50;99.90;;;;;;4955289;28;20028;-78
2023/10/03 00:58:44;;;;;;;1999.90;999.90;;;11.50;99.90;;;;;;4954018;28;20094;-79
2023/10/03 01:01:11;;;;;;;1999.90;999.90;;;11.50;99.90;;;;;;4953989;28;20090;-79
2023/10/03 01:03:38;;;;;;;1999.90;999.90;;;11.50;99.90;;;;;;4955151;28;20046;-79
2023/10/03 01:06:09;;;;;;;1999.90;999.90;;;11.50;99.90;;;;;;4953690;28;20028;-79
2023/10/03 01:08:40;;;;;;;1999.90;999.90;;;11.40;99.90;;;;;;4953151;28;20094;-78
2023/10/03 01:11:07;;;;;;;1999.90;999.90;;;11.40;99.90;;;;;;4953824;28;20028;-78
2023/10/03 01:13:34;;;;;;;1999.90;999.90;;;11.40;99.90;;;;;;4953744;28;20497;-79
2023/10/03 01:16:00;;;;;;;1999.90;999.90;;;11.30;99.90;;;;;;4953608;28;20523;-79
2023/10/03 01:18:27;;;;;;;1999.90;999.90;;;11.30;99.90;;;;;;4955165;28;20109;-79
2023/10/03 01:21:00;;;;;;;1999.90;999.90;;;11.40;99.90;;;;;;4953762;28;20034;-79
2023/10/03 01:23:35;;;;;;;1999.90;999.90;;;11.30;99.90;;;;;;4953302;28;20044;-79
2023/10/03 01:26:02;;;;;;;1999.90;999.90;;;11.30;99.90;;;;;;4953537;28;20071;-79
2023/10/03 01:28:27;;;;;;;1999.90;999.90;;;11.30;99.90;;;;;;4953602;28;20044;-80
2023/10/03 01:30:53;;;;;;;1999.90;999.90;;;11.20;99.90;;;;;;4953597;28;20039;-79
2023/10/03 01:33:26;;;;;;;1999.90;999.90;;;11.20;99.90;;;;;;4954881;28;20035;-79
2023/10/03 01:35:52;;;;;;;1999.90;999.90;;;11.10;99.90;;;;;;4953419;28;20504;-79
2023/10/03 01:38:17;;;;;;;1999.90;999.90;;;11.10;99.90;;;;;;4954230;28;20529;-79
2023/10/03 01:40:43;;;;;;;1999.90;999.90;;;11.10;99.90;;;;;;4954774;28;20074;-79
2023/10/03 01:43:09;;;;;;;1999.90;999.90;;;11.10;99.90;;;;;;4953206;28;20397;-80
2023/10/03 01:45:34;;;;;;;1999.90;999.90;;;11.10;99.90;;;;;;4954872;28;20513;-79
2023/10/03 01:48:00;;;;;;;1999.90;999.90;;;11.10;99.90;;;;;;4953341;28;20086;-79
2023/10/03 01:50:29;;;;;;;1999.90;999.90;;;11.10;99.90;;;;;;4954965;28;20067;-79
2023/10/03 01:52:55;;;;;;;1999.90;999.90;;;11.00;99.90;;;;;;4953029;28;20042;-79
2023/10/03 01:55:21;;;;;;;1999.90;999.90;;;11.00;99.90;;;;;;4953493;28;20040;-79
2023/10/03 01:57:47;;;;;;;1999.90;999.90;;;11.00;99.90;;;;;;4954295;28;20040;-80
2023/10/03 02:00:28;;;;;;;1999.90;999.90;;;10.90;99.90;;;;;;4953183;28;20039;-79
2023/10/03 02:02:56;;;;;;;1999.90;999.90;;;10.90;99.90;;;;;;4952960;28;20143;-79
2023/10/03 02:05:24;;;;;;;1999.90;999.90;;;11.00;99.90;;;;;;4954584;28;20024;-80
2023/10/03 02:07:51;;;;;;;1999.90;999.90;;;11.00;99.90;;;;;;4952892;28;20123;-79
2023/10/03 02:10:20;;;;;;;1999.90;999.90;;;11.00;99.90;;;;;;4953115;28;20043;-79
2023/10/03 02:12:49;;;;;;;1999.90;999.90;;;10.90;99.90;;;;;;4954408;28;20595;-79
2023/10/03 02:15:23;;;;;;;1999.90;999.90;;;11.00;99.90;;;;;;4952896;28;20501;-79
2023/10/03 02:17:56;;;;;;;1999.90;999.90;;;10.90;99.90;;;;;;4954296;28;20039;-79
2023/10/03 02:20:25;;;;;;;1999.90;999.90;;;10.90;99.90;;;;;;4953001;28;20032;-79
2023/10/03 02:22:54;;;;;;;1999.90;999.90;;;11.00;99.90;;;;;;4953924;28;20071;-79
2023/10/03 02:25:27;;;;;;;1999.90;999.90;;;10.90;99.90;;;;;;4954516;28;20067;-79
2023/10/03 02:27:56;;;;;;;1999.90;999.90;;;11.00;99.90;;;;;;4954300;28;20035;-79
2023/10/03 02:30:23;;;;;;;1999.90;999.90;;;10.90;99.90;;;;;;4954125;28;20031;-79
2023/10/03 02:32:54;;;;;;;1999.90;999.90;;;11.00;99.90;;;;;;4952567;28;20036;-79
2023/10/03 02:35:27;;;;;;;1999.90;999.90;;;11.00;99.90;;;;;;4952967;28;20416;-79
2023/10/03 02:37:56;;;;;;;1999.90;999.90;;;11.00;99.90;;;;;;4952449;28;20102;-80
2023/10/03 02:40:22;;;;;;;1999.90;999.90;;;11.00;99.90;;;;;;4954202;28;20032;-79
2023/10/03 02:42:54;;;;;;;1999.90;999.90;;;11.00;99.90;;;;;;4952527;28;20040;-79
2023/10/03 02:45:25;;;;;;;1999.90;999.90;;;10.90;99.90;;;;;;4954278;28;20421;-79
2023/10/03 02:48:14;;;;;;;1999.90;999.90;;;10.90;99.90;;;;;;4952506;28;20038;-79
2023/10/03 02:50:41;;;;;;;1999.90;999.90;;;10.90;99.90;;;;;;4952605;28;20036;-79
2023/10/03 02:53:12;;;;;;;1999.90;999.90;;;10.90;99.90;;;;;;4953503;28;20038;-79
2023/10/03 02:55:39;;;;;;;1999.90;999.90;;;10.90;99.90;;;;;;4952596;28;20038;-80
2023/10/03 02:58:05;;;;;;;1999.90;999.90;;;10.90;99.90;;;;;;4951715;28;20047;-79
2023/10/03 03:00:33;;;;;;;1999.90;999.90;;;10.90;99.90;;;;;;4954133;28;20042;-79
2023/10/03 03:02:59;;;;;;;1999.90;999.90;;;10.80;99.90;;;;;;4952049;28;20047;-79
2023/10/03 03:05:35;;;;;;;1999.90;999.90;;;10.80;99.90;;;;;;4952489;28;20028;-79
2023/10/03 03:08:04;;;;;;;1999.90;999.90;;;10.80;99.90;;;;;;4952238;28;20513;-79
2023/10/03 03:10:31;;;;;;;1999.90;999.90;;;10.80;99.90;;;;;;4953716;28;20111;-79
2023/10/03 03:12:57;;;;;;;1999.90;999.90;;;10.70;99.90;;;;;;4953778;28;20036;-78
2023/10/03 03:15:23;;;;;;;1999.90;999.90;;;10.70;99.90;;;;;;4953800;28;20031;-78
2023/10/03 03:17:52;;;;;;;1999.90;999.90;;;10.80;99.90;;;;;;4953363;28;20043;-79
2023/10/03 03:20:19;;;;;;;1999.90;999.90;;;10.80;99.90;;;;;;4953503;28;20497;-79
2023/10/03 03:22:48;;;;;;;1999.90;999.90;;;10.80;99.90;;;;;;4951193;28;20051;-79
2023/10/03 03:27:59;;;;;;;1999.90;999.90;;;10.80;99.90;;;;;;4953849;28;20039;-78
2023/10/03 03:32:54;;;;;;;1999.90;999.90;;;10.90;99.90;;;;;;4953393;28;20040;-79
2023/10/03 03:35:23;;;;;;;1999.90;999.90;;;11.00;99.90;;;;;;4952196;28;20036;-79
2023/10/03 03:37:48;;;;;;;1999.90;999.90;;;11.00;99.90;;;;;;4951858;28;20540;-79
2023/10/03 03:40:25;;;;;;;1999.90;999.90;;;11.00;99.90;;;;;;4951861;28;20039;-79
2023/10/03 03:42:52;;;;;;;1999.90;999.90;;;11.00;99.90;;;;;;4953212;28;20036;-79
2023/10/03 03:45:21;;;;;;;1999.90;999.90;;;11.10;99.90;;;;;;4953572;28;20036;-79
2023/10/03 03:47:50;;;;;;;1999.90;999.90;;;11.00;99.90;;;;;;4953041;28;20039;-79
2023/10/03 03:50:17;;;;;;;1999.90;999.90;;;11.00;99.90;;;;;;4951933;28;20409;-79
2023/10/03 03:52:45;;;;;;;1999.90;999.90;;;11.00;99.90;;;;;;4953266;28;20443;-79
2023/10/03 03:55:11;;;;;;;1999.90;999.90;;;11.00;99.90;;;;;;4953237;28;20032;-79
2023/10/03 03:57:38;;;;;;;1999.90;999.90;;;10.90;99.90;;;;;;4953037;28;20568;-79
2023/10/03 04:03:09;;;;;;;1999.90;999.90;;;10.90;99.90;;;;;;5006239;28;20040;-79
2023/10/03 04:05:35;;;;;;;1999.90;999.90;;;10.90;99.90;;;;;;4951645;28;20032;-79
2023/10/03 04:08:03;;;;;;;1999.90;999.90;;;11.00;99.90;;;;;;4951530;28;20040;-79
2023/10/03 04:10:30;;;;;;;1999.90;999.90;;;11.00;99.90;;;;;;4953314;28;20027;-80
2023/10/03 04:12:56;;;;;;;1999.90;999.90;;;11.00;99.90;;;;;;4954276;28;20036;-79
2023/10/03 04:15:23;;;;;;;1999.90;999.90;;;11.00;99.90;;;;;;4955955;28;20038;-80
2023/10/03 04:17:49;;;;;;;1999.90;999.90;;;10.90;99.90;;;;;;4954287;28;20082;-79
2023/10/03 04:20:48;;;;;;;1999.90;999.90;;;10.90;99.90;;;;;;4954401;28;20127;-79
2023/10/03 04:23:08;;;;;;;1999.90;999.90;;;10.90;99.90;;;;;;4960316;28;20028;-80
2023/10/03 04:25:34;;;;;;;1999.90;999.90;;;10.90;99.90;;;;;;4954927;28;20273;-80
2023/10/03 04:28:01;;;;;;;1999.90;999.90;;;11.00;99.90;;;;;;4954755;28;20496;-80
2023/10/03 04:30:27;;;;;;;1999.90;999.90;;;11.00;99.90;;;;;;4956086;28;20086;-80
2023/10/03 04:32:54;;;;;;;1999.90;999.90;;;11.00;99.90;;;;;;4954541;28;20032;-80
2023/10/03 04:35:22;;;;;;;1999.90;999.90;;;11.00;99.90;;;;;;4954852;28;20047;-80
2023/10/03 04:37:52;;;;;;;1999.90;999.90;;;11.00;99.90;;;;;;4956268;28;20032;-80
2023/10/03 04:40:22;;;;;;;1999.90;999.90;;;11.10;99.90;;;;;;4954611;28;20035;-79
2023/10/03 04:42:55;;;;;;;1999.90;999.90;;;11.00;99.90;;;;;;4954568;28;20039;-80
2023/10/03 04:45:22;;;;;;;1999.90;999.90;;;10.90;99.90;;;;;;4956464;28;20126;-79
2023/10/03 04:47:48;;;;;;;1999.90;999.90;;;11.00;99.90;;;;;;4956098;28;20480;-79
2023/10/03 04:50:18;;;;;;;1999.90;999.90;;;11.00;99.90;;;;;;4956665;28;20031;-79
2023/10/03 04:52:50;;;;;;;1999.90;999.90;;;11.00;99.90;;;;;;4954923;28;20042;-80
2023/10/03 04:55:17;;;;;;;1999.90;999.90;;;11.00;99.90;;;;;;4956649;28;20078;-79
2023/10/03 04:57:47;;;;;;;1999.90;999.90;;;11.00;99.90;;;;;;4955464;28;20733;-80
2023/10/03 05:00:17;;;;;;;1999.90;999.90;;;10.90;99.90;;;;;;4955182;28;20452;-80
2023/10/03 05:02:50;;;;;;;1999.90;999.90;;;10.90;99.90;;;;;;4954747;28;20043;-79
2023/10/03 05:05:18;;;;;;;1999.90;999.90;;;10.90;99.90;;;;;;4954884;28;20064;-80
2023/10/03 05:07:45;;;;;;;1999.90;999.90;;;11.00;99.90;;;;;;4954139;28;20032;-80
2023/10/03 05:10:12;;;;;;;1999.90;999.90;;;11.00;99.90;;;;;;4954196;28;20110;-80
2023/10/03 05:12:38;;;;;;;1999.90;999.90;;;10.90;99.90;;;;;;4954287;28;20035;-79
2023/10/03 05:15:07;;;;;;;1999.90;999.90;;;10.90;99.90;;;;;;4954356;28;20097;-79
2023/10/03 05:17:35;;;;;;;1999.90;999.90;;;10.90;99.90;;;;;;4954187;28;20036;-80
2023/10/03 05:20:02;;;;;;;1999.90;999.90;;;10.90;99.90;;;;;;4954872;28;20087;-80
2023/10/03 05:22:32;;;;;;;1999.90;999.90;;;10.90;99.90;;;;;;4953877;28;20038;-79
2023/10/03 05:24:59;;;;;;;1999.90;999.90;;;10.90;99.90;;;;;;4955692;28;20064;-80
2023/10/03 05:27:24;;;;;;;1999.90;999.90;;;10.90;99.90;;;;;;4955439;28;20039;-80
2023/10/03 05:29:51;;;;;;;1999.90;999.90;;;10.90;99.90;;;;;;4955696;28;20031;-80
2023/10/03 05:32:17;;;;;;;1999.90;999.90;;;10.90;99.90;;;;;;4955627;28;20028;-80
2023/10/03 05:34:43;;;;;;;1999.90;999.90;;;10.80;99.90;;;;;;4954119;28;20047;-79
2023/10/03 05:37:10;;;;;;;1999.90;999.90;;;10.90;99.90;;;;;;4953843;28;20036;-80
2023/10/03 05:39:36;;;;;;;1999.90;999.90;;;10.90;99.90;;;;;;4954076;28;20094;-80
2023/10/03 05:42:01;;;;;;;1999.90;999.90;;;11.00;99.90;;;;;;4954544;28;20445;-79
2023/10/03 05:44:27;;;;;;;1999.90;999.90;;;10.90;99.90;;;;;;4953977;28;20497;-80
2023/10/03 05:46:55;;;;;;;1999.90;999.90;;;10.90;99.90;;;;;;4955379;28;20044;-79
2023/10/03 05:49:23;;;;;;;1999.90;999.90;;;10.90;99.90;;;;;;4955390;28;20040;-79
2023/10/03 05:51:49;;;;;;;1999.90;999.90;;;11.00;99.90;;;;;;4954092;28;20102;-79
2023/10/03 05:54:15;;;;;;;1999.90;999.90;;;10.90;99.90;;;;;;4955214;28;20074;-80
2023/10/03 05:56:41;;;;;;;1999.90;999.90;;;11.00;99.90;;;;;;4953658;28;20040;-79
2023/10/03 05:59:07;;;;;;;1999.90;999.90;;;11.10;99.90;;;;;;4954238;28;20051;-79
2023/10/03 06:01:32;;;;;;;1999.90;999.90;;;11.10;99.90;;;;;;4954154;28;20714;-79
2023/10/03 06:03:58;;;;;;;1999.90;999.90;;;11.10;99.90;;;;;;4957147;28;20044;-79
2023/10/03 06:06:23;;;;;;;1999.90;999.90;;;11.10;99.90;;;;;;4959912;28;20040;-79
2023/10/03 06:08:49;;;;;;;1999.90;999.90;;;11.20;99.90;;;;;;4961841;28;20044;-80
2023/10/03 06:11:17;;;;;;;1999.90;999.90;;;11.30;99.90;;;;;;4962147;28;20058;-80
2023/10/03 06:13:44;;;;;;;1999.90;999.90;;;11.40;99.90;;;;;;4959025;28;20131;-80
2023/10/03 06:16:14;;;;;;;1999.90;999.90;;;11.60;99.90;;;;;;4959683;28;20020;-79
2023/10/03 06:18:44;;;;;;;1999.90;999.90;;;11.60;99.90;;;;;;4961624;28;20059;-79
2023/10/03 06:21:10;;;;;;;1999.90;999.90;;;11.80;99.90;;;;;;4960720;28;20048;-80
2023/10/03 06:23:37;;;;;;;1999.90;999.90;;;11.90;99.90;;;;;;4960182;28;20036;-81
2023/10/03 06:26:03;;;;;;;1999.90;999.90;;;12.00;99.90;;;;;;4960487;28;20043;-79
2023/10/03 06:28:29;;;;;;;1999.90;999.90;;;12.10;99.90;;;;;;4962805;28;20557;-79
2023/10/03 06:30:55;;;;;;;1999.90;999.90;;;12.30;99.90;;;;;;4961513;28;20123;-79
2023/10/03 06:33:21;;;;;;;1999.90;999.90;;;12.40;99.90;;;;;;4961102;28;20048;-80
2023/10/03 06:35:50;;;;;;;1999.90;999.90;;;12.50;99.90;;;;;;4958437;28;20040;-77
2023/10/03 06:38:16;;;;;;;1999.90;999.90;;;12.70;99.90;;;;;;4952722;28;20043;-77
2023/10/03 06:40:42;;;;;;;1999.90;999.90;;;12.80;99.90;;;;;;4952710;28;20111;-77
2023/10/03 06:43:07;;;;;;;1999.90;999.90;;;13.00;99.90;;;;;;4952638;28;20047;-77
2023/10/03 06:45:33;;;;;;;1999.90;999.90;;;13.20;99.90;;;;;;4954254;28;20039;-77
2023/10/03 06:48:03;;;;;;;1999.90;999.90;;;13.40;99.90;;;;;;4952436;28;20094;-77
2023/10/03 06:50:30;;;;;;;1999.90;999.90;;;13.70;99.90;;;;;;4954565;28;20031;-78
2023/10/03 06:52:55;;;;;;;1999.90;999.90;;;14.10;99.90;;;;;;4954974;28;20040;-78
2023/10/03 06:55:21;;;;;;;1999.90;999.90;;;14.50;99.90;;;;;;4954570;28;20114;-78
2023/10/03 06:57:46;;;;;;;1999.90;999.90;;;15.00;99.90;;;;;;4952440;28;20096;-80
2023/10/03 07:00:14;;;;;;;1999.90;999.90;;;15.50;99.90;;;;;;4954023;28;20043;-79
2023/10/03 07:02:40;;;;;;;1999.90;999.90;;;16.00;99.90;;;;;;4954244;28;20046;-79
2023/10/03 07:05:09;;;;;;;1999.90;999.90;;;16.60;99.90;;;;;;4953402;28;20077;-78
2023/10/03 07:07:35;;;;;;;1999.90;999.90;;;17.20;99.90;;;;;;4953959;28;20024;-80
2023/10/03 07:10:01;;;;;;;1999.90;999.90;;;17.80;99.90;;;;;;4953088;28;20525;-86
2023/10/03 07:12:26;;;;;;;1999.90;999.90;;;18.30;99.90;;;;;;4955959;28;20032;-82
2023/10/03 07:14:52;;;;;;;1999.90;999.90;;;18.70;99.90;;;;;;4953882;28;20044;-87
2023/10/03 07:17:18;;;;;;;1999.90;999.90;;;19.00;99.90;;;;;;4953152;28;20032;-82
2023/10/03 07:19:48;;;;;;;1999.90;999.90;;;19.40;99.90;;;;;;4954287;28;20032;-87
2023/10/03 07:22:14;;;;;;;1999.90;999.90;;;19.90;99.90;;;;;;4952530;28;20524;-80
2023/10/03 07:24:40;;;;;;;1999.90;999.90;;;20.30;99.90;;;;;;4953659;28;20055;-85
2023/10/03 07:27:07;;;;;;;1999.90;999.90;;;20.50;99.90;;;;;;4952584;28;20040;-87
2023/10/03 07:29:36;;;;;;;1999.90;999.90;;;20.70;99.90;;;;;;4952521;28;20532;-82
2023/10/03 07:32:02;;;;;;;1999.90;999.90;;;21.00;99.90;;;;;;4952806;28;20067;-85
2023/10/03 07:34:28;;;;;;;1999.90;999.90;;;21.30;99.90;;;;;;4954286;28;20035;-85
2023/10/03 07:36:54;;;;;;;1999.90;999.90;;;21.60;99.90;;;;;;4952266;28;20409;-80
2023/10/03 07:39:21;;;;;;;1999.90;999.90;;;21.80;99.90;;;;;;4952773;28;20039;-80
2023/10/03 07:41:51;;;;;;;1999.90;999.90;;;21.80;99.90;;;;;;4953896;28;20063;-81
2023/10/03 07:44:17;;;;;;;1999.90;999.90;;;21.90;99.90;;;;;;4951964;28;20146;-82
2023/10/03 07:46:43;;;;;;;1999.90;999.90;;;22.10;99.90;;;;;;4950809;28;20106;-83
2023/10/03 07:49:09;;;;;;;1999.90;999.90;;;22.30;99.90;;;;;;4952355;28;20429;-83
2023/10/03 07:51:35;;;;;;;1999.90;999.90;;;22.70;99.90;;;;;;4951846;28;20040;-79
2023/10/03 07:54:02;;;;;;;1999.90;999.90;;;22.80;99.90;;;;;;4960757;28;20032;-81
2023/10/03 07:56:31;;;;;;;1999.90;999.90;;;23.00;99.90;;;;;;4955361;28;20035;-80
2023/10/03 07:59:01;;;;;;;1999.90;999.90;;;23.20;99.90;;;;;;4991284;28;20037;-84
2023/10/03 08:01:27;;;;;;;1999.90;999.90;;;23.50;99.90;;;;;;4952101;28;20036;-86
2023/10/03 08:03:57;;;;;;;1999.90;999.90;;;23.80;99.90;;;;;;4952131;28;20039;-81
2023/10/03 08:06:26;;;;;;;1999.90;999.90;;;23.80;99.90;;;;;;4951724;28;20872;-82
2023/10/03 08:08:53;;;;;;;1999.90;999.90;;;23.90;99.90;;;;;;4952805;28;20575;-82
2023/10/03 08:11:28;;;;;;;1999.90;999.90;;;23.90;99.90;;;;;;4952066;28;20093;-81
2023/10/03 08:13:55;;;;;;;1999.90;999.90;;;24.10;99.90;;;;;;4954484;28;20118;-81
2023/10/03 08:16:22;;;;;;;1999.90;999.90;;;24.20;99.90;;;;;;4954856;28;20505;-81
2023/10/03 08:18:57;;;;;;;1999.90;999.90;;;24.20;99.90;;;;;;4957862;28;20047;-81
2023/10/03 08:21:28;;;;;;;1999.90;999.90;;;24.30;99.90;;;;;;4951235;28;20037;-81
2023/10/03 08:23:58;;;;;;;1999.90;999.90;;;24.30;99.90;;;;;;4936781;28;20052;-82
2023/10/03 08:26:25;;;;;;;1999.90;999.90;;;24.30;99.90;;;;;;4972781;28;20031;-79
2023/10/03 08:28:59;;;;;;;1999.90;999.90;;;24.30;99.90;;;;;;4964278;28;20832;-84
2023/10/03 08:31:26;;;;;;;1999.90;999.90;;;24.30;99.90;;;;;;4953029;28;20043;-80
2023/10/03 08:33:55;;;;;;;1999.90;999.90;;;24.40;99.50;;;;;;4953044;28;20040;-81
2023/10/03 08:36:22;;;;;;;1999.90;999.90;;;24.40;99.60;;;;;;4952438;28;20039;-83
2023/10/03 08:38:49;;;;;;;1999.90;999.90;;;24.30;99.30;;;;;;4955753;28;20039;-80
2023/10/03 08:41:28;;;;;;;1999.90;999.90;;;24.20;99.60;;;;;;4969948;28;20029;-81
2023/10/03 08:43:55;;;;;;;1999.90;999.90;;;24.20;99.20;;;;;;5020502;28;20098;-84
2023/10/03 08:46:28;;;;;;;1999.90;999.90;;;24.30;99.60;;;;;;4977057;28;20064;-84
2023/10/03 08:49:00;;;;;;;1999.90;999.90;;;24.20;99.20;;;;;;5054454;28;20056;-81
2023/10/03 08:51:32;;;;;;;1999.90;999.90;;;24.20;99.10;;;;;;4978843;28;20036;-84
2023/10/03 08:54:09;;;;;;;1999.90;999.90;;;24.30;99.90;;;;;;4968431;28;20047;-81
2023/10/03 08:56:35;;;;;;;1999.90;999.90;;;24.40;99.50;;;;;;5033843;28;20502;-82
2023/10/03 08:59:03;;;;;;;1999.90;999.90;;;24.50;99.90;;;;;;5018952;28;20038;-79
2023/10/03 09:01:33;;;;;;;1999.90;999.90;;;24.50;99.40;;;;;;5058552;28;20052;-80
2023/10/03 09:04:04;;;;;;;1999.90;999.90;;;24.60;99.40;;;;;;5056701;28;20037;-78
2023/10/03 09:06:37;;;;;;;1999.90;999.90;;;24.70;99.90;;;;;;5055008;28;20598;-79
2023/10/03 09:09:08;;;;;;;1999.90;999.90;;;24.90;98.90;;;;;;5055783;28;20037;-82
2023/10/03 09:11:37;;;;;;;1999.90;999.90;;;24.90;98.30;;;;;;5056151;28;20033;-79
2023/10/03 09:14:07;;;;;;;1999.90;999.90;;;25.10;98.50;;;;;;5056024;28;20038;-84
2023/10/03 09:16:38;;;;;;;1999.90;999.90;;;25.20;98.20;;;;;;5057077;28;20388;-83
2023/10/03 09:19:23;;;;;;;1999.90;999.90;;;25.30;98.50;;;;;;5055789;28;20502;-82
2023/10/03 09:21:52;;;;;;;1999.90;999.90;;;25.20;98.00;;;;;;5055900;28;20033;-80
2023/10/03 09:24:22;;;;;;;1999.90;999.90;;;24.90;97.30;;;;;;5040570;28;20489;-79
2023/10/03 09:26:54;;;;;;;1999.90;999.90;;;25.00;98.80;;;;;;4954965;28;20085;-82
2023/10/03 09:29:30;;;;;;;1999.90;999.90;;;25.00;98.40;;;;;;4956267;28;20098;-81
2023/10/03 09:31:58;;;;;;;1999.90;999.90;;;25.20;98.30;;;;;;5056560;28;20084;-76
2023/10/03 09:34:30;;;;;;;1999.90;999.90;;;25.40;98.40;;;;;;5055856;28;20483;-74
2023/10/03 09:37:03;;;;;;;1999.90;999.90;;;25.50;98.50;;;;;;5056396;28;20037;-79
2023/10/03 09:39:48;;;;;;;1999.90;999.90;;;25.90;96.80;;;;;;4936118;28;20110;-75
2023/10/03 09:42:16;;;;;;;1999.90;999.90;;;26.10;98.30;;;;;;5048148;28;20530;-72
2023/10/03 09:44:46;;;;;;;1999.90;999.90;;;26.20;97.70;;;;;;5054141;28;20051;-74
2023/10/03 09:47:13;;;;;;;1999.90;999.90;;;26.30;96.30;;;;;;4961733;28;20061;-72
2023/10/03 09:49:39;;;;;;;1999.90;999.90;;;26.30;97.10;;;;;;5042149;28;20083;-72
2023/10/03 09:52:08;;;;;;;1999.90;999.90;;;26.40;96.20;;;;;;5006148;28;20039;-79
2023/10/03 09:54:35;;;;;;;1999.90;999.90;;;26.70;95.30;;;;;;4996889;28;20035;-73
2023/10/03 09:57:06;;;;;;;1999.90;999.90;;;26.60;95.80;;;;;;4952833;28;20516;-73
2023/10/03 09:59:35;;;;;;;1999.90;999.90;;;26.50;94.70;;;;;;4954588;28;20481;-75
2023/10/03 10:02:02;;;;;;;1999.90;999.90;;;26.40;94.80;;;;;;4955900;28;20066;-72
2023/10/03 10:04:30;;;;;;;1999.90;999.90;;;26.00;94.50;;;;;;4954495;28;20040;-73
2023/10/03 10:07:29;;;;;;;1999.90;999.90;;;25.70;95.80;;;;;;4954154;28;20476;-73
2023/10/03 10:10:24;;;;;;;1999.90;999.90;;;25.60;95.90;;;;;;4954703;28;20044;-73
2023/10/03 10:13:20;;;;;;;1999.90;999.90;;;25.80;95.40;;;;;;4965005;28;20048;-77
2023/10/03 10:16:07;;;;;;;1999.90;999.90;;;26.00;95.40;;;;;;4954326;28;20620;-76
2023/10/03 10:18:45;;;;;;;1999.90;999.90;;;26.00;95.40;;;;;;4952945;28;20102;-75
2023/10/03 10:21:26;;;;;;;1999.90;999.90;;;26.00;95.20;;;;;;4954538;28;20036;-75
2023/10/03 10:24:15;;;;;;;1999.90;999.90;;;26.00;96.60;;;;;;4968121;22;20066;-74
2023/10/03 10:26:42;;;;;;;1999.90;999.90;;;25.90;96.40;;;;;;4953321;28;20483;-74
2023/10/03 10:29:09;;;;;;;1999.90;999.90;;;25.80;96.60;;;;;;4954046;28;20062;-75
2023/10/03 10:31:39;;;;;;;1999.90;999.90;;;25.90;96.30;;;;;;4954189;28;20062;-76
2023/10/03 10:34:22;;;;;;;1999.90;999.90;;;26.10;96.20;;;;;;4954725;28;20038;-77
2023/10/03 10:37:12;;;;;;;1999.90;999.90;;;26.10;96.80;;;;;;4952908;28;20165;-79
2023/10/03 10:42:55;;;;;;;1999.90;999.90;;;25.90;97.70;;;;;;4950907;28;20059;-74
2023/10/03 10:45:21;;;;;;;1999.90;999.90;;;26.30;96.60;;;;;;4950264;28;20039;-76
2023/10/03 10:47:51;;;;;;;1999.90;999.90;;;26.30;96.00;;;;;;4952131;28;20043;-76
2023/10/03 10:50:17;;;;;;;1999.90;999.90;;;26.30;95.30;;;;;;4952323;28;20063;-75
2023/10/03 10:52:53;;;;;;;1999.90;999.90;;;26.10;95.30;;;;;;4954051;28;20040;-76
2023/10/03 10:55:21;;;;;;;1999.90;999.90;;;25.80;95.10;;;;;;4953995;28;20043;-76
2023/10/03 10:57:47;;;;;;;1999.90;999.90;;;25.70;95.90;;;;;;4953616;28;20102;-75
2023/10/03 11:00:17;;;;;;;1999.90;999.90;;;25.70;95.80;;;;;;4954311;28;20094;-78
2023/10/03 11:02:44;;;;;;;1999.90;999.90;;;25.90;95.80;;;;;;4933487;28;20102;-78
2023/10/03 11:05:10;;;;;;;1999.90;999.90;;;26.10;95.10;;;;;;4934819;28;20513;-75
2023/10/03 11:07:37;;;;;;;1999.90;999.90;;;26.20;94.20;;;;;;4951768;28;20079;-75
2023/10/03 11:10:12;;;;;;;1999.90;999.90;;;26.10;93.10;;;;;;4953691;28;20119;-74
2023/10/03 11:12:38;;;;;;;1999.90;999.90;;;26.10;93.10;;;;;;4953786;28;20035;-75
2023/10/03 11:15:10;;;;;;;1999.90;999.90;;;26.00;93.20;;;;;;4953373;28;20421;-76
2023/10/03 11:17:37;;;;;;;1999.90;999.90;;;26.00;93.10;;;;;;4953431;28;20055;-75
2023/10/03 11:20:08;;;;;;;1999.90;999.90;;;25.80;92.90;;;;;;4951469;28;20040;-75
2023/10/03 11:22:37;;;;;;;1999.90;999.90;;;25.70;93.70;;;;;;4953716;28;20512;-74
2023/10/03 11:25:08;;;;;;;1999.90;999.90;;;25.60;93.70;;;;;;4953039;28;20040;-75
2023/10/03 11:27:34;;;;;;;1999.90;999.90;;;25.60;94.40;;;;;;4952134;28;20039;-74
2023/10/03 11:30:14;;;;;;;1999.90;999.90;;;25.40;93.90;;;;;;4955553;28;20039;-77
2023/10/03 11:32:40;;;;;;;1999.90;999.90;;;25.30;94.50;;;;;;4953781;28;20032;-74
2023/10/03 11:35:20;;;;;;;1999.90;999.90;;;25.10;94.60;;;;;;4950705;28;20058;-75
2023/10/03 11:37:51;;;;;;;1999.90;999.90;;;25.20;94.90;;;;;;4953061;28;20036;-77
2023/10/03 11:40:19;;;;;;;1999.90;999.90;;;25.10;95.30;;;;;;4953828;28;20059;-75
2023/10/03 11:43:07;;;;;;;1999.90;999.90;;;25.00;95.00;;;;;;4952020;28;20036;-75
2023/10/03 11:45:34;;;;;;;1999.90;999.90;;;24.90;95.80;;;;;;4946623;28;20517;-73
2023/10/03 11:48:05;;;;;;;1999.90;999.90;;;24.70;96.70;;;;;;4951559;28;20024;-73
2023/10/03 11:50:33;;;;;;;1999.90;999.90;;;24.70;95.90;;;;;;4951990;28;20040;-73
2023/10/03 11:52:59;;;;;;;1999.90;999.90;;;24.70;96.50;;;;;;4949836;28;20031;-73
2023/10/03 11:55:26;;;;;;;1999.90;999.90;;;24.90;96.80;;;;;;4952057;28;20039;-73
2023/10/03 11:57:51;;;;;;;1999.90;999.90;;;25.00;96.30;;;;;;4951135;28;20040;-73
2023/10/03 12:00:17;;;;;;;1999.90;999.90;;;25.10;96.10;;;;;;4952112;28;20043;-73
2023/10/03 12:02:46;;;;;;;1999.90;999.90;;;25.20;95.80;;;;;;4952481;28;20031;-73
2023/10/03 12:05:12;;;;;;;1999.90;999.90;;;25.30;95.70;;;;;;4951108;28;20036;-73
2023/10/03 12:07:39;;;;;;;1999.90;999.90;;;25.40;96.20;;;;;;4952786;28;20036;-73
2023/10/03 12:10:10;;;;;;;1999.90;999.90;;;25.50;96.70;;;;;;4952745;28;20043;-73
2023/10/03 12:12:37;;;;;;;1999.90;999.90;;;25.40;95.50;;;;;;4952877;28;20056;-73
2023/10/03 12:15:03;;;;;;;1999.90;999.90;;;25.50;95.80;;;;;;4952759;28;20040;-73
2023/10/03 12:17:29;;;;;;;1999.90;999.90;;;25.50;95.30;;;;;;4952605;28;20031;-74
2023/10/03 12:19:54;;;;;;;1999.90;999.90;;;25.60;95.60;;;;;;4952786;28;20378;-73